Lower Sugarloaf Key, Florida
Current Conditions -  °F | °C
As of 6:53 AM on Monday 26 Jan 2015 (Local Time) from KNQX Reporting Station
Scattered Clouds Scattered Clouds  
Wind Chill: 67°   Ceiling: Unl
Heat Index: 67°   Visibility: 10mi
Dew Point: 57°   Wind: 12mph
Humidity: 70%   Direction: 260°W
Pressure: 29.99"   Gusts: NA
Location:  24.6465°N, 81.5399°W
Report Text: KNQX 261153Z 26010KT 10SM SCT050 19/14 A2999 RMK AO2 SLP153 T01940139 10200 20167 56000 $
Loading
Personal Weather Stations






























Interactive Weather Map New forecast layout! Learn more

10-Day Weather Forecast

Advertisements
Track Severe Weather on mobile